createdAt,value
2023-03-15T00:00:03.896Z,99442.22
2023-03-15T00:00:39.539Z,99438.69
2023-03-15T00:01:15.412Z,99442.91
2023-03-15T00:01:51.382Z,99440.69
2023-03-15T00:02:27.491Z,99442.72
2023-03-15T00:03:03.001Z,99448.06
2023-03-15T00:03:39.202Z,99440.19
2023-03-15T00:04:15.275Z,99442.22
2023-03-15T00:04:51.104Z,99437.06
2023-03-15T00:05:26.094Z,99442.91
2023-03-15T00:06:02.228Z,99434.03
2023-03-15T00:06:38.361Z,99443.88
2023-03-15T00:07:14.133Z,99442.25
2023-03-15T00:07:50.390Z,99439.84
2023-03-15T00:08:25.865Z,99437.41
2023-03-15T00:09:01.976Z,99424.81
2023-03-15T00:09:38.266Z,99433.75
2023-03-15T00:10:13.579Z,99428.88
2023-03-15T00:10:48.789Z,99423.19
2023-03-15T00:11:24.934Z,99422.94
2023-03-15T00:12:01.062Z,99426.16
2023-03-15T00:12:37.527Z,99423.72
2023-03-15T00:13:13.568Z,99424.00
2023-03-15T00:13:49.673Z,99423.50
2023-03-15T00:14:25.530Z,99418.03
2023-03-15T00:15:01.182Z,99418.28
2023-03-15T00:15:37.369Z,99418.03
2023-03-15T00:16:13.291Z,99422.69
2023-03-15T00:16:49.120Z,99420.47
2023-03-15T00:17:25.764Z,99420.72
2023-03-15T00:18:01.495Z,99425.34
2023-03-15T00:18:37.591Z,99424.00
2023-03-15T00:19:13.933Z,99422.94
2023-03-15T00:19:50.061Z,99432.63
2023-03-15T00:20:25.624Z,99434.84
2023-03-15T00:21:01.556Z,99434.09
2023-03-15T00:21:37.181Z,99437.88
2023-03-15T00:22:12.841Z,99453.16
2023-03-15T00:22:49.155Z,99455.06
2023-03-15T00:23:25.789Z,99457.81
2023-03-15T00:24:02.137Z,99457.81
2023-03-15T00:24:38.202Z,99457.75
2023-03-15T00:25:14.347Z,99464.00
2023-03-15T00:25:49.981Z,99460.22
2023-03-15T00:26:25.407Z,99465.69
2023-03-15T00:27:01.351Z,99456.44
2023-03-15T00:27:37.637Z,99466.53
2023-03-15T00:28:13.525Z,99463.56
2023-03-15T00:28:49.463Z,99464.66
2023-03-15T00:29:25.900Z,99460.81
2023-03-15T00:30:01.983Z,99457.28
2023-03-15T00:30:37.657Z,99452.34
2023-03-15T00:31:13.263Z,99458.84
2023-03-15T00:31:49.240Z,99465.13
2023-03-15T00:32:25.743Z,99467.31
2023-03-15T00:33:01.841Z,99472.47
2023-03-15T00:33:37.809Z,99480.66
2023-03-15T00:34:13.710Z,99481.22
2023-03-15T00:34:49.629Z,99475.56
2023-03-15T00:35:25.961Z,99477.69
2023-03-15T00:36:02.055Z,99478.50
2023-03-15T00:36:37.170Z,99475.75
2023-03-15T00:37:13.776Z,99468.94
2023-03-15T00:37:49.490Z,99471.44
2023-03-15T00:38:25.091Z,99473.84
2023-03-15T00:39:01.356Z,99475.19
2023-03-15T00:39:37.506Z,99470.56
2023-03-15T00:40:13.945Z,99475.50
2023-03-15T00:40:50.212Z,99484.25
2023-03-15T00:41:25.800Z,99480.94
2023-03-15T00:42:00.754Z,99481.22
2023-03-15T00:42:37.141Z,99476.31
2023-03-15T00:43:13.411Z,99474.97
2023-03-15T00:43:49.533Z,99479.09
2023-03-15T00:44:26.078Z,99479.59
2023-03-15T00:45:02.463Z,99481.50
2023-03-15T00:45:38.225Z,99478.28
2023-03-15T00:46:14.149Z,99485.13
2023-03-15T00:46:50.045Z,99482.41
2023-03-15T00:47:25.404Z,99477.97
2023-03-15T00:48:01.589Z,99473.94
2023-03-15T00:48:37.485Z,99481.28
2023-03-15T00:49:13.431Z,99478.88
2023-03-15T00:49:49.513Z,99479.97
2023-03-15T00:50:25.732Z,99482.91
2023-03-15T00:51:02.087Z,99487.84
2023-03-15T00:51:38.048Z,99471.50
2023-03-15T00:52:13.755Z,99489.47
2023-03-15T00:52:49.161Z,99489.78
2023-03-15T00:53:25.739Z,99490.56
2023-03-15T00:54:02.250Z,99487.03
2023-03-15T00:54:37.836Z,99479.38
2023-03-15T00:55:14.318Z,99496.53
2023-03-15T00:55:50.534Z,99488.66
2023-03-15T00:56:26.818Z,99492.50
2023-03-15T00:57:03.006Z,99476.97
2023-03-15T00:57:38.625Z,99489.47
2023-03-15T00:58:14.281Z,99479.69
2023-03-15T00:58:50.638Z,99485.13
2023-03-15T00:59:26.305Z,99487.03
2023-03-15T01:00:02.919Z,99483.50
2023-03-15T01:00:38.562Z,99480.78
2023-03-15T01:01:15.141Z,99484.63
2023-03-15T01:01:50.697Z,99480.28
2023-03-15T01:02:26.795Z,99480.72
2023-03-15T01:03:02.231Z,99479.38
2023-03-15T01:03:37.658Z,99475.84
2023-03-15T01:04:13.583Z,99475.75
2023-03-15T01:04:49.571Z,99475.56
2023-03-15T01:05:25.553Z,99480.50
2023-03-15T01:06:01.644Z,99482.69
2023-03-15T01:06:37.762Z,99481.81
2023-03-15T01:07:13.793Z,99478.56
2023-03-15T01:07:49.335Z,99476.97
2023-03-15T01:08:25.101Z,99471.50
2023-03-15T01:09:00.292Z,99484.63
2023-03-15T01:09:36.230Z,99472.09
2023-03-15T01:10:12.514Z,99481.38
2023-03-15T01:10:48.511Z,99469.69
2023-03-15T01:11:24.622Z,99469.81
2023-03-15T01:12:00.206Z,99473.13
2023-03-15T01:12:36.716Z,99470.19
2023-03-15T01:13:12.229Z,99467.47
2023-03-15T01:13:48.006Z,99465.75
2023-03-15T01:14:23.552Z,99465.69
2023-03-15T01:14:59.337Z,99468.69
2023-03-15T01:15:35.347Z,99465.47
2023-03-15T01:16:11.487Z,99461.63
2023-03-15T01:16:47.580Z,99473.13
2023-03-15T01:17:23.438Z,99478.56
2023-03-15T01:17:59.004Z,99483.81
2023-03-15T01:18:35.255Z,99481.09
2023-03-15T01:19:10.810Z,99473.63
2023-03-15T01:19:46.417Z,99475.84
2023-03-15T01:20:21.998Z,99478.56
2023-03-15T01:20:58.254Z,99471.22
2023-03-15T01:21:33.929Z,99469.28
2023-03-15T01:22:09.831Z,99471.72
2023-03-15T01:22:46.263Z,99477.47
2023-03-15T01:23:22.475Z,99470.09
2023-03-15T01:23:57.937Z,99468.94
2023-03-15T01:24:33.993Z,99477.47
2023-03-15T01:25:09.391Z,99477.75
2023-03-15T01:25:45.324Z,99474.22
2023-03-15T01:26:21.285Z,99480.50
2023-03-15T01:26:56.885Z,99470.91
2023-03-15T01:27:33.258Z,99478.56
2023-03-15T01:28:09.782Z,99479.38
2023-03-15T01:28:45.702Z,99483.72
2023-03-15T01:29:21.496Z,99476.16
2023-03-15T01:29:57.124Z,99474.81
2023-03-15T01:30:32.701Z,99489.25
2023-03-15T01:31:07.918Z,99491.47
2023-03-15T01:31:43.371Z,99486.22
2023-03-15T01:32:19.196Z,99488.06
2023-03-15T01:32:55.428Z,99482.41
2023-03-15T01:33:31.380Z,99481.81
2023-03-15T01:34:07.335Z,99488.66
2023-03-15T01:34:43.424Z,99484.91
2023-03-15T01:35:19.873Z,99487.41
2023-03-15T01:35:55.721Z,99491.97
2023-03-15T01:36:31.298Z,99495.50
2023-03-15T01:37:06.833Z,99495.81
2023-03-15T01:37:42.592Z,99498.97
2023-03-15T01:38:18.792Z,99502.19
2023-03-15T01:38:54.813Z,99498.16
2023-03-15T01:39:30.667Z,99497.84
2023-03-15T01:40:07.137Z,99495.72
2023-03-15T01:40:43.172Z,99496.03
2023-03-15T01:41:18.917Z,99499.56
2023-03-15T01:41:54.462Z,99500.88
2023-03-15T01:42:30.514Z,99503.09
2023-03-15T01:43:06.780Z,99501.47
2023-03-15T01:43:42.488Z,99505.31
2023-03-15T01:44:18.500Z,99500.97
2023-03-15T01:44:54.771Z,99493.09
2023-03-15T01:45:30.425Z,99502.28
2023-03-15T01:46:06.962Z,99498.16
2023-03-15T01:46:42.467Z,99496.53
2023-03-15T01:47:17.989Z,99503.09
2023-03-15T01:47:53.803Z,99495.50
2023-03-15T01:48:29.921Z,99503.16
2023-03-15T01:49:06.181Z,99505.91
2023-03-15T01:49:42.183Z,99502.88
2023-03-15T01:50:18.121Z,99504.28
2023-03-15T01:50:53.636Z,99502.88
2023-03-15T01:51:29.602Z,99510.25
2023-03-15T01:52:05.656Z,99494.41
2023-03-15T01:52:41.189Z,99510.47
2023-03-15T01:53:17.286Z,99504.78
2023-03-15T01:53:53.513Z,99509.66
2023-03-15T01:54:29.651Z,99500.97
2023-03-15T01:55:05.774Z,99506.41
2023-03-15T01:55:41.248Z,99508.53
2023-03-15T01:56:17.471Z,99503.91
2023-03-15T01:56:53.534Z,99507.22
2023-03-15T01:57:29.053Z,99505.00
2023-03-15T01:58:04.749Z,99496.84
2023-03-15T01:58:41.049Z,99499.34
2023-03-15T01:59:17.273Z,99508.09
2023-03-15T01:59:53.371Z,99506.91
2023-03-15T02:00:29.179Z,99510.75
2023-03-15T02:01:04.937Z,99516.19
2023-03-15T02:01:41.153Z,99508.25
2023-03-15T02:02:17.121Z,99505.00
2023-03-15T02:02:52.294Z,99507.44
2023-03-15T02:03:27.388Z,99512.06
2023-03-15T02:04:03.808Z,99505.00
2023-03-15T02:04:39.873Z,99507.44
2023-03-15T02:05:15.742Z,99500.97
2023-03-15T02:05:51.631Z,99503.38
2023-03-15T02:06:27.458Z,99505.09
2023-03-15T02:07:03.745Z,99503.47
2023-03-15T02:07:39.980Z,99501.84
2023-03-15T02:08:15.560Z,99504.28
2023-03-15T02:08:51.260Z,99497.22
2023-03-15T02:09:27.151Z,99499.13
2023-03-15T02:10:03.472Z,99502.66
2023-03-15T02:10:40.176Z,99502.38
2023-03-15T02:11:16.126Z,99500.44
2023-03-15T02:11:51.917Z,99493.31
2023-03-15T02:12:28.090Z,99502.66
2023-03-15T02:13:04.343Z,99498.75
2023-03-15T02:13:40.426Z,99500.88
2023-03-15T02:14:16.136Z,99491.03
2023-03-15T02:14:52.150Z,99500.66
2023-03-15T02:15:28.049Z,99502.38
2023-03-15T02:16:04.171Z,99496.41
2023-03-15T02:16:40.825Z,99512.38
2023-03-15T02:17:16.952Z,99507.81
2023-03-15T02:17:52.724Z,99516.28
2023-03-15T02:18:28.841Z,99508.19
2023-03-15T02:19:04.396Z,99505.47
2023-03-15T02:19:40.340Z,99512.81
2023-03-15T02:20:16.848Z,99510.91
2023-03-15T02:20:52.541Z,99507.88
2023-03-15T02:21:28.018Z,99515.25
2023-03-15T02:22:04.282Z,99508.19
2023-03-15T02:22:40.588Z,99513.34
2023-03-15T02:23:17.297Z,99509.50
2023-03-15T02:23:53.513Z,99511.34
2023-03-15T02:24:29.083Z,99510.03
2023-03-15T02:25:04.695Z,99508.41
2023-03-15T02:25:40.715Z,99509.50
2023-03-15T02:26:16.870Z,99507.59
2023-03-15T02:26:53.203Z,99516.06
2023-03-15T02:27:28.982Z,99510.03
2023-03-15T02:28:04.960Z,99510.75
2023-03-15T02:28:41.378Z,99514.66
2023-03-15T02:29:17.357Z,99514.94
2023-03-15T02:29:52.936Z,99510.09
2023-03-15T02:30:28.148Z,99511.94
2023-03-15T02:31:04.460Z,99512.75
2023-03-15T02:31:41.362Z,99517.09
2023-03-15T02:32:16.997Z,99519.00
2023-03-15T02:32:53.383Z,99517.09
2023-03-15T02:33:29.497Z,99521.94
2023-03-15T02:34:06.063Z,99525.19
2023-03-15T02:34:42.637Z,99521.72
2023-03-15T02:35:18.152Z,99519.72
2023-03-15T02:35:53.681Z,99521.66
2023-03-15T02:36:30.085Z,99517.09
2023-03-15T02:37:06.705Z,99522.31
2023-03-15T02:37:43.075Z,99522.84
2023-03-15T02:38:18.817Z,99525.03
2023-03-15T02:38:54.962Z,99518.28
2023-03-15T02:39:30.558Z,99522.41
2023-03-15T02:40:07.077Z,99520.78
2023-03-15T02:40:42.661Z,99524.31
2023-03-15T02:41:17.506Z,99530.25
2023-03-15T02:41:52.675Z,99527.19
2023-03-15T02:42:29.083Z,99536.06
2023-03-15T02:43:05.185Z,99533.66
2023-03-15T02:43:41.260Z,99534.03
2023-03-15T02:44:17.068Z,99526.66
2023-03-15T02:44:53.285Z,99538.72
2023-03-15T02:45:29.909Z,99530.84
2023-03-15T02:46:05.574Z,99533.59
2023-03-15T02:46:41.677Z,99529.25
2023-03-15T02:47:16.994Z,99532.19
2023-03-15T02:47:53.280Z,99534.63
2023-03-15T02:48:29.356Z,99532.41
2023-03-15T02:49:06.252Z,99538.16
2023-03-15T02:49:41.928Z,99533.50
2023-03-15T02:50:18.023Z,99526.72
2023-03-15T02:50:54.137Z,99537.63
2023-03-15T02:51:29.647Z,99534.81
2023-03-15T02:52:04.967Z,99534.81
2023-03-15T02:52:41.472Z,99535.13
2023-03-15T02:53:17.621Z,99539.69
2023-03-15T02:53:53.500Z,99544.91
2023-03-15T02:54:29.750Z,99540.88
2023-03-15T02:55:05.912Z,99547.41
2023-03-15T02:55:41.749Z,99542.78
2023-03-15T02:56:18.090Z,99542.47
2023-03-15T02:56:53.767Z,99545.00
2023-03-15T02:57:29.469Z,99546.91
2023-03-15T02:58:05.632Z,99538.50
2023-03-15T02:58:41.829Z,99543.66
2023-03-15T02:59:18.246Z,99543.88
2023-03-15T02:59:54.003Z,99550.94
2023-03-15T03:00:30.079Z,99545.22
2023-03-15T03:01:06.152Z,99546.25
2023-03-15T03:01:42.265Z,99546.81
2023-03-15T03:02:17.955Z,99536.53
2023-03-15T03:02:53.496Z,99548.53
2023-03-15T03:03:29.098Z,99547.13
2023-03-15T03:04:05.425Z,99547.41
2023-03-15T03:04:42.247Z,99545.50
2023-03-15T03:05:18.380Z,99550.72
2023-03-15T03:05:54.782Z,99550.72
2023-03-15T03:06:31.212Z,99557.56
2023-03-15T03:07:07.435Z,99550.22
2023-03-15T03:07:43.647Z,99549.34
2023-03-15T03:08:19.096Z,99549.56
2023-03-15T03:08:55.190Z,99553.97
2023-03-15T03:09:30.810Z,99553.97
2023-03-15T03:10:07.254Z,99551.03
2023-03-15T03:10:43.430Z,99548.81
2023-03-15T03:11:18.989Z,99552.66
2023-03-15T03:11:54.886Z,99550.13
2023-03-15T03:12:31.402Z,99549.91
2023-03-15T03:13:06.753Z,99550.72
2023-03-15T03:13:43.201Z,99552.13
2023-03-15T03:14:19.209Z,99558.97
2023-03-15T03:14:55.190Z,99550.22
2023-03-15T03:15:31.475Z,99552.13
2023-03-15T03:16:07.465Z,99547.50
2023-03-15T03:16:43.023Z,99549.09
2023-03-15T03:17:18.650Z,99559.50
2023-03-15T03:17:54.485Z,99555.16
2023-03-15T03:18:30.576Z,99559.41
2023-03-15T03:19:06.826Z,99555.16
2023-03-15T03:19:42.892Z,99564.66
2023-03-15T03:20:19.464Z,99571.06
2023-03-15T03:20:55.239Z,99561.25
2023-03-15T03:21:30.982Z,99563.25
2023-03-15T03:22:06.605Z,99561.34
2023-03-15T03:22:43.374Z,99562.13
2023-03-15T03:23:19.562Z,99567.28
2023-03-15T03:23:55.927Z,99568.97
2023-03-15T03:24:31.423Z,99575.25
2023-03-15T03:25:07.552Z,99571.19
2023-03-15T03:25:44.225Z,99573.41
2023-03-15T03:26:20.370Z,99573.09
2023-03-15T03:26:55.911Z,99569.88
2023-03-15T03:27:31.044Z,99582.31
2023-03-15T03:28:07.398Z,99571.13
2023-03-15T03:28:43.742Z,99572.81
2023-03-15T03:29:19.414Z,99569.56
2023-03-15T03:29:55.808Z,99568.75
2023-03-15T03:30:31.698Z,99575.03
2023-03-15T03:31:07.286Z,99576.56
2023-03-15T03:31:43.579Z,99578.78
2023-03-15T03:32:19.592Z,99573.09
2023-03-15T03:32:54.978Z,99575.53
2023-03-15T03:33:30.951Z,99582.31
2023-03-15T03:34:06.961Z,99576.06
2023-03-15T03:34:43.310Z,99573.63
2023-03-15T03:35:19.349Z,99584.00
2023-03-15T03:35:55.102Z,99569.56
2023-03-15T03:36:30.865Z,99575.84
2023-03-15T03:37:06.822Z,99578.25
2023-03-15T03:37:42.278Z,99581.22
2023-03-15T03:38:18.725Z,99577.44
2023-03-15T03:38:55.210Z,99588.13
2023-03-15T03:39:31.293Z,99588.41
2023-03-15T03:40:06.936Z,99582.97
2023-03-15T03:40:43.557Z,99592.47
2023-03-15T03:41:19.813Z,99588.41
2023-03-15T03:41:55.584Z,99596.59
2023-03-15T03:42:31.358Z,99601.22
2023-03-15T03:43:07.384Z,99603.94
2023-03-15T03:43:43.604Z,99601.72
2023-03-15T03:44:19.682Z,99597.91
2023-03-15T03:44:55.226Z,99600.13
2023-03-15T03:45:31.849Z,99603.06
2023-03-15T03:46:07.407Z,99605.78
2023-03-15T03:46:43.816Z,99608.00
2023-03-15T03:47:19.520Z,99609.31
2023-03-15T03:47:54.622Z,99607.19
2023-03-15T03:48:31.076Z,99618.88
2023-03-15T03:49:06.807Z,99608.81
2023-03-15T03:49:43.496Z,99612.56
2023-03-15T03:50:19.666Z,99607.69
2023-03-15T03:50:56.222Z,99612.56
2023-03-15T03:51:32.474Z,99618.22
2023-03-15T03:52:08.716Z,99622.06
2023-03-15T03:52:44.567Z,99620.72
2023-03-15T03:53:20.179Z,99618.88
2023-03-15T03:53:56.273Z,99617.25
2023-03-15T03:54:32.306Z,99623.53
2023-03-15T03:55:08.276Z,99620.22
2023-03-15T03:55:44.973Z,99623.16
2023-03-15T03:56:20.913Z,99623.97
2023-03-15T03:56:56.889Z,99623.22
2023-03-15T03:57:33.004Z,99624.34
2023-03-15T03:58:09.643Z,99628.16
2023-03-15T03:58:44.819Z,99617.19
2023-03-15T03:59:21.034Z,99625.38
2023-03-15T03:59:56.947Z,99623.22
2023-03-15T04:00:32.580Z,99622.72
2023-03-15T04:01:08.902Z,99628.97
2023-03-15T04:01:44.734Z,99626.75
2023-03-15T04:02:20.910Z,99632.22
2023-03-15T04:02:57.368Z,99631.69
2023-03-15T04:03:32.437Z,99636.25
2023-03-15T04:04:08.043Z,99639.28
2023-03-15T04:04:44.214Z,99636.25
2023-03-15T04:05:20.256Z,99642.22
2023-03-15T04:05:55.972Z,99641.19
2023-03-15T04:06:32.149Z,99635.22
2023-03-15T04:07:08.387Z,99637.94
2023-03-15T04:07:44.618Z,99639.28
2023-03-15T04:08:20.829Z,99640.91
2023-03-15T04:08:56.265Z,99635.69
2023-03-15T04:09:32.031Z,99640.84
2023-03-15T04:10:08.353Z,99639.50
2023-03-15T04:10:44.567Z,99640.09
2023-03-15T04:11:20.684Z,99643.63
2023-03-15T04:11:56.662Z,99643.09
2023-03-15T04:12:32.578Z,99639.84
2023-03-15T04:13:08.477Z,99649.88
2023-03-15T04:13:44.370Z,99644.13
2023-03-15T04:14:20.252Z,99643.34
2023-03-15T04:14:55.901Z,99643.91
2023-03-15T04:15:31.767Z,99653.41
2023-03-15T04:16:07.524Z,99652.59
2023-03-15T04:16:43.755Z,99641.41
2023-03-15T04:17:19.360Z,99646.00
2023-03-15T04:17:55.516Z,99650.97
2023-03-15T04:18:31.802Z,99640.66
2023-03-15T04:19:07.885Z,99645.31
2023-03-15T04:19:43.892Z,99647.22
2023-03-15T04:20:19.222Z,99647.81
2023-03-15T04:20:56.146Z,99645.59
2023-03-15T04:21:31.765Z,99647.22
2023-03-15T04:22:07.610Z,99652.66
2023-03-15T04:22:43.897Z,99652.59
2023-03-15T04:23:20.384Z,99650.97
2023-03-15T04:23:55.854Z,99657.00
2023-03-15T04:24:32.024Z,99657.31
2023-03-15T04:25:07.933Z,99651.56
2023-03-15T04:25:43.445Z,99655.38
2023-03-15T04:26:19.880Z,99652.38
2023-03-15T04:26:55.556Z,99658.13
2023-03-15T04:27:31.899Z,99654.81
2023-03-15T04:28:08.380Z,99658.63
2023-03-15T04:28:44.172Z,99658.63
2023-03-15T04:29:20.549Z,99662.69
2023-03-15T04:29:56.629Z,99660.78
2023-03-15T04:30:32.429Z,99660.53
2023-03-15T04:31:08.296Z,99658.84
2023-03-15T04:31:44.492Z,99658.06
2023-03-15T04:32:20.427Z,99663.28
2023-03-15T04:32:56.187Z,99659.16
2023-03-15T04:33:31.831Z,99662.47
2023-03-15T04:34:08.212Z,99661.88
2023-03-15T04:34:44.736Z,99664.31
2023-03-15T04:35:21.273Z,99668.38
2023-03-15T04:35:57.081Z,99668.06
2023-03-15T04:36:32.814Z,99669.97
2023-03-15T04:37:08.934Z,99670.34
2023-03-15T04:37:44.748Z,99671.16
2023-03-15T04:38:20.220Z,99671.72
2023-03-15T04:38:56.210Z,99673.88
2023-03-15T04:39:32.429Z,99667.84
2023-03-15T04:40:08.737Z,99676.25
2023-03-15T04:40:45.582Z,99672.72
2023-03-15T04:41:21.273Z,99671.38
2023-03-15T04:41:57.663Z,99667.84
2023-03-15T04:42:33.496Z,99667.31
2023-03-15T04:43:08.917Z,99671.72
2023-03-15T04:43:45.527Z,99670.91
2023-03-15T04:44:21.392Z,99670.63
2023-03-15T04:44:57.300Z,99666.28
2023-03-15T04:45:33.390Z,99681.53
2023-03-15T04:46:09.515Z,99670.34
2023-03-15T04:46:45.377Z,99673.88
2023-03-15T04:47:21.532Z,99675.78
2023-03-15T04:47:56.562Z,99671.72
2023-03-15T04:48:32.582Z,99678.22
2023-03-15T04:49:08.654Z,99678.50
2023-03-15T04:49:44.997Z,99686.38
2023-03-15T04:50:20.570Z,99682.84
2023-03-15T04:50:57.112Z,99688.59
2023-03-15T04:51:32.914Z,99689.09
2023-03-15T04:52:09.435Z,99686.69
2023-03-15T04:52:45.451Z,99689.63
2023-03-15T04:53:21.073Z,99690.72
2023-03-15T04:53:56.544Z,99692.13
2023-03-15T04:54:32.812Z,99694.56
2023-03-15T04:55:09.230Z,99687.50
2023-03-15T04:55:45.164Z,99686.91
2023-03-15T04:56:20.815Z,99686.38
2023-03-15T04:56:57.449Z,99686.38
2023-03-15T04:57:33.302Z,99688.88
2023-03-15T04:58:09.055Z,99688.00
2023-03-15T04:58:44.470Z,99692.13
2023-03-15T04:59:20.846Z,99691.09
2023-03-15T04:59:56.785Z,99691.91
2023-03-15T05:00:32.352Z,99688.00
2023-03-15T05:01:08.517Z,99696.47
2023-03-15T05:01:44.503Z,99697.81
2023-03-15T05:02:20.585Z,99697.28
2023-03-15T05:02:56.505Z,99691.91
2023-03-15T05:03:32.346Z,99699.78
2023-03-15T05:04:08.175Z,99696.25
2023-03-15T05:04:44.162Z,99693.28
2023-03-15T05:05:20.291Z,99693.50
2023-03-15T05:05:55.717Z,99695.88
2023-03-15T05:06:31.995Z,99694.25
2023-03-15T05:07:07.601Z,99697.88
2023-03-15T05:07:43.174Z,99691.84
2023-03-15T05:08:18.909Z,99696.19
2023-03-15T05:08:54.354Z,99689.63
2023-03-15T05:09:30.610Z,99689.09
2023-03-15T05:10:07.018Z,99694.31
2023-03-15T05:10:43.665Z,99692.72
2023-03-15T05:11:19.554Z,99696.75
2023-03-15T05:11:55.446Z,99699.47
2023-03-15T05:12:31.571Z,99694.63
2023-03-15T05:13:06.862Z,99694.03
2023-03-15T05:13:42.343Z,99698.97
2023-03-15T05:14:18.821Z,99697.06
2023-03-15T05:14:54.913Z,99694.84
2023-03-15T05:15:30.731Z,99695.38
2023-03-15T05:16:07.283Z,99703.31
2023-03-15T05:16:43.133Z,99700.06
2023-03-15T05:17:19.241Z,99697.06
2023-03-15T05:17:54.722Z,99698.63
2023-03-15T05:18:30.545Z,99696.19
2023-03-15T05:19:05.866Z,99699.72
2023-03-15T05:19:42.260Z,99704.88
2023-03-15T05:20:18.176Z,99707.00
2023-03-15T05:20:54.128Z,99710.91
2023-03-15T05:21:30.371Z,99708.97
2023-03-15T05:22:06.227Z,99701.09
2023-03-15T05:22:42.262Z,99703.81
2023-03-15T05:23:18.153Z,99705.75
2023-03-15T05:23:53.937Z,99713.16
2023-03-15T05:24:29.474Z,99705.22
2023-03-15T05:25:05.183Z,99707.13
2023-03-15T05:25:41.590Z,99714.44
2023-03-15T05:26:17.784Z,99715.81
2023-03-15T05:26:53.965Z,99713.69
2023-03-15T05:27:29.925Z,99719.34
2023-03-15T05:28:05.914Z,99717.97
2023-03-15T05:28:41.368Z,99723.13
2023-03-15T05:29:17.330Z,99730.47
2023-03-15T05:29:52.610Z,99715.25
2023-03-15T05:30:28.928Z,99721.84
2023-03-15T05:31:05.465Z,99721.78
2023-03-15T05:31:41.304Z,99728.06
2023-03-15T05:32:17.186Z,99720.22
2023-03-15T05:32:53.434Z,99723.25
2023-03-15T05:33:29.249Z,99720.47
2023-03-15T05:34:05.442Z,99725.69
2023-03-15T05:34:41.062Z,99724.56
2023-03-15T05:35:16.776Z,99732.16
2023-03-15T05:35:52.756Z,99732.41
2023-03-15T05:36:28.297Z,99729.72
2023-03-15T05:37:04.228Z,99734.88
2023-03-15T05:37:40.759Z,99736.81
2023-03-15T05:38:16.691Z,99733.50
2023-03-15T05:38:52.457Z,99739.22
2023-03-15T05:39:28.476Z,99734.06
2023-03-15T05:40:04.591Z,99741.91
2023-03-15T05:40:40.141Z,99743.88
2023-03-15T05:41:16.532Z,99742.81
2023-03-15T05:41:52.267Z,99745.78
2023-03-15T05:42:28.688Z,99752.56
2023-03-15T05:43:04.618Z,99750.72
2023-03-15T05:43:40.543Z,99756.44
2023-03-15T05:44:17.452Z,99753.19
2023-03-15T05:44:53.501Z,99750.41
2023-03-15T05:45:29.119Z,99760.22
2023-03-15T05:46:05.010Z,99760.72
2023-03-15T05:46:41.407Z,99757.78
2023-03-15T05:47:17.536Z,99764.28
2023-03-15T05:47:53.361Z,99762.13
2023-03-15T05:48:29.785Z,99769.25
2023-03-15T05:49:05.674Z,99764.31
2023-03-15T05:49:40.194Z,99770.28
2023-03-15T05:50:13.574Z,99769.78
2023-03-15T05:50:49.677Z,99771.91
2023-03-15T05:51:25.239Z,99765.41
2023-03-15T05:52:00.652Z,99778.22
2023-03-15T05:52:37.096Z,99773.59
2023-03-15T05:53:12.634Z,99777.41
2023-03-15T05:53:48.970Z,99776.84
2023-03-15T05:54:25.023Z,99774.69
2023-03-15T05:55:01.372Z,99782.81
2023-03-15T05:55:37.039Z,99783.84
2023-03-15T05:56:13.077Z,99779.50
2023-03-15T05:56:48.641Z,99782.81
2023-03-15T05:57:24.969Z,99776.78
2023-03-15T05:58:01.067Z,99784.97
2023-03-15T05:58:37.496Z,99789.31
2023-03-15T05:59:13.946Z,99787.38
2023-03-15T05:59:49.775Z,99790.41
2023-03-15T06:00:26.092Z,99795.91
2023-03-15T06:01:01.740Z,99786.34
2023-03-15T06:01:37.773Z,99794.22
2023-03-15T06:02:13.235Z,99793.69
2023-03-15T06:02:49.054Z,99802.69
2023-03-15T06:03:25.305Z,99792.66
2023-03-15T06:04:01.924Z,99803.25
2023-03-15T06:04:37.879Z,99804.06
2023-03-15T06:05:14.336Z,99803.25
2023-03-15T06:05:50.430Z,99801.94
2023-03-15T06:06:26.369Z,99804.38
2023-03-15T06:07:02.291Z,99798.69
2023-03-15T06:07:37.591Z,99802.22
2023-03-15T06:08:13.926Z,99803.31
2023-03-15T06:08:50.480Z,99803.31
2023-03-15T06:09:26.200Z,99803.25
2023-03-15T06:10:02.768Z,99807.31
2023-03-15T06:10:39.074Z,99808.13
2023-03-15T06:11:15.107Z,99807.38
2023-03-15T06:11:51.427Z,99815.53
2023-03-15T06:12:27.188Z,99810.66
2023-03-15T06:13:02.617Z,99817.22
2023-03-15T06:13:38.484Z,99819.66
2023-03-15T06:14:14.739Z,99817.97
2023-03-15T06:14:51.528Z,99814.44
2023-03-15T06:15:27.484Z,99819.59
2023-03-15T06:16:03.879Z,99819.03
2023-03-15T06:16:40.208Z,99822.84
2023-03-15T06:17:16.408Z,99818.22
2023-03-15T06:17:52.637Z,99815.78
2023-03-15T06:18:27.753Z,99811.72
2023-03-15T06:19:03.794Z,99828.31
2023-03-15T06:19:40.656Z,99823.13
2023-03-15T06:20:16.769Z,99824.25
2023-03-15T06:20:52.882Z,99826.38
2023-03-15T06:21:28.467Z,99826.63
2023-03-15T06:22:04.740Z,99823.66
2023-03-15T06:22:40.749Z,99822.63
2023-03-15T06:23:16.630Z,99818.78
2023-03-15T06:23:52.342Z,99824.00
2023-03-15T06:24:28.554Z,99817.22
2023-03-15T06:25:04.950Z,99822.13
2023-03-15T06:25:41.182Z,99824.81
2023-03-15T06:26:53.116Z,99822.63
2023-03-15T06:27:29.161Z,99829.69
2023-03-15T06:28:05.795Z,99826.69
2023-03-15T06:29:17.192Z,99829.97
2023-03-15T06:29:53.054Z,99826.44
2023-03-15T06:30:28.732Z,99827.28
2023-03-15T06:31:05.129Z,99829.22
2023-03-15T06:31:41.068Z,99831.66
2023-03-15T06:32:17.014Z,99834.66
2023-03-15T06:32:53.622Z,99836.56
2023-03-15T06:33:29.349Z,99834.94
2023-03-15T06:34:05.436Z,99835.75
2023-03-15T06:34:40.963Z,99838.44
2023-03-15T06:35:17.753Z,99836.22
2023-03-15T06:35:53.858Z,99835.94
2023-03-15T06:36:29.942Z,99832.13
2023-03-15T06:37:06.336Z,99828.00
2023-03-15T06:37:42.160Z,99842.78
2023-03-15T06:38:18.397Z,99831.88
2023-03-15T06:38:54.465Z,99833.56
2023-03-15T06:39:30.562Z,99830.84
2023-03-15T06:40:06.052Z,99838.72
2023-03-15T06:40:41.936Z,99837.34
2023-03-15T06:41:18.154Z,99840.06
2023-03-15T06:41:54.476Z,99835.94
2023-03-15T06:42:30.525Z,99833.50
2023-03-15T06:43:06.920Z,99830.53
2023-03-15T06:43:43.078Z,99834.66
2023-03-15T06:44:19.168Z,99839.53
2023-03-15T06:44:55.544Z,99838.94
2023-03-15T06:46:07.026Z,99840.88
2023-03-15T06:46:43.082Z,99843.59
2023-03-15T06:47:18.818Z,99839.75
2023-03-15T06:47:54.915Z,99848.22
2023-03-15T06:48:31.342Z,99844.41
2023-03-15T06:49:07.227Z,99843.59
2023-03-15T06:49:43.133Z,99849.56
2023-03-15T06:50:18.903Z,99845.44
2023-03-15T06:50:54.627Z,99850.38
2023-03-15T06:51:30.463Z,99850.38
2023-03-15T06:52:07.174Z,99853.09
2023-03-15T06:53:19.396Z,99849.31
2023-03-15T06:53:55.300Z,99846.84
2023-03-15T06:54:31.606Z,99856.41
2023-03-15T06:55:07.404Z,99853.16
2023-03-15T06:55:43.144Z,99855.81
2023-03-15T06:56:18.802Z,99858.53
2023-03-15T06:56:54.782Z,99855.28
2023-03-15T06:57:30.822Z,99856.41
2023-03-15T06:58:06.670Z,99858.06
2023-03-15T06:58:43.019Z,99857.53
2023-03-15T06:59:19.939Z,99865.72
2023-03-15T06:59:56.047Z,99861.31
2023-03-15T07:00:32.196Z,99866.22
2023-03-15T07:01:08.087Z,99861.06
2023-03-15T07:01:43.564Z,99867.28
2023-03-15T07:02:19.750Z,99860.75
2023-03-15T07:02:55.659Z,99868.88
2023-03-15T07:03:32.015Z,99871.03
2023-03-15T07:04:08.458Z,99866.94
2023-03-15T07:04:43.810Z,99868.91